sensor_id;sensor_type;location;lat;lon;timestamp;temperature;humidity
18073;DHT22;9161;47.348;9.648;2023-05-07T00:04:41;15.50;99.90
18073;DHT22;9161;47.348;9.648;2023-05-07T00:09:45;15.50;99.90
18073;DHT22;9161;47.348;9.648;2023-05-07T00:14:47;15.50;99.90
18073;DHT22;9161;47.348;9.648;2023-05-07T00:19:50;15.50;99.90
18073;DHT22;9161;47.348;9.648;2023-05-07T00:24:53;15.40;99.90
18073;DHT22;9161;47.348;9.648;2023-05-07T00:29:55;15.40;99.90
18073;DHT22;9161;47.348;9.648;2023-05-07T00:34:59;15.30;99.90
18073;DHT22;9161;47.348;9.648;2023-05-07T00:40:01;15.30;99.90
18073;DHT22;9161;47.348;9.648;2023-05-07T00:45:06;15.50;99.90
18073;DHT22;9161;47.348;9.648;2023-05-07T00:50:11;15.40;99.90
18073;DHT22;9161;47.348;9.648;2023-05-07T00:55:13;15.10;99.90
18073;DHT22;9161;47.348;9.648;2023-05-07T01:00:16;15.30;99.90
18073;DHT22;9161;47.348;9.648;2023-05-07T01:05:21;15.30;99.90
18073;DHT22;9161;47.348;9.648;2023-05-07T01:10:26;15.20;99.90
18073;DHT22;9161;47.348;9.648;2023-05-07T01:15:28;15.20;99.90
18073;DHT22;9161;47.348;9.648;2023-05-07T01:20:32;15.30;99.90
18073;DHT22;9161;47.348;9.648;2023-05-07T01:25:35;15.30;99.90
18073;DHT22;9161;47.348;9.648;2023-05-07T01:30:39;15.40;99.90
18073;DHT22;9161;47.348;9.648;2023-05-07T01:35:46;15.30;99.90
18073;DHT22;9161;47.348;9.648;2023-05-07T01:40:50;15.20;99.90
18073;DHT22;9161;47.348;9.648;2023-05-07T01:45:53;15.00;99.90
18073;DHT22;9161;47.348;9.648;2023-05-07T01:50:55;14.80;99.90
18073;DHT22;9161;47.348;9.648;2023-05-07T01:55:59;14.60;99.90
18073;DHT22;9161;47.348;9.648;2023-05-07T02:01:01;14.40;99.90
18073;DHT22;9161;47.348;9.648;2023-05-07T02:06:04;14.50;99.90
18073;DHT22;9161;47.348;9.648;2023-05-07T02:11:07;14.40;99.90
18073;DHT22;9161;47.348;9.648;2023-05-07T02:16:09;14.00;99.90
18073;DHT22;9161;47.348;9.648;2023-05-07T02:21:11;13.80;99.90
18073;DHT22;9161;47.348;9.648;2023-05-07T02:26:15;13.40;99.90
18073;DHT22;9161;47.348;9.648;2023-05-07T02:31:17;13.20;99.90
18073;DHT22;9161;47.348;9.648;2023-05-07T02:36:19;13.00;99.90
18073;DHT22;9161;47.348;9.648;2023-05-07T02:41:23;12.90;99.90
18073;DHT22;9161;47.348;9.648;2023-05-07T02:46:25;12.80;99.90
18073;DHT22;9161;47.348;9.648;2023-05-07T02:51:27;12.60;99.90
18073;DHT22;9161;47.348;9.648;2023-05-07T02:56:30;12.50;99.90
18073;DHT22;9161;47.348;9.648;2023-05-07T03:01:32;12.50;99.90
18073;DHT22;9161;47.348;9.648;2023-05-07T03:06:34;12.50;99.90
18073;DHT22;9161;47.348;9.648;2023-05-07T03:11:37;12.50;99.90
18073;DHT22;9161;47.348;9.648;2023-05-07T03:16:39;12.80;99.90
18073;DHT22;9161;47.348;9.648;2023-05-07T03:21:41;12.50;99.90
18073;DHT22;9161;47.348;9.648;2023-05-07T03:26:45;12.40;99.90
18073;DHT22;9161;47.348;9.648;2023-05-07T03:31:47;12.30;99.90
18073;DHT22;9161;47.348;9.648;2023-05-07T03:36:49;12.20;99.90
18073;DHT22;9161;47.348;9.648;2023-05-07T03:41:53;12.20;99.90
18073;DHT22;9161;47.348;9.648;2023-05-07T03:46:54;12.10;99.90
18073;DHT22;9161;47.348;9.648;2023-05-07T03:51:57;12.20;99.90
18073;DHT22;9161;47.348;9.648;2023-05-07T03:57:00;12.70;99.90
18073;DHT22;9161;47.348;9.648;2023-05-07T04:02:02;12.70;99.90
18073;DHT22;9161;47.348;9.648;2023-05-07T04:07:05;12.50;99.90
18073;DHT22;9161;47.348;9.648;2023-05-07T04:12:09;12.30;99.90
18073;DHT22;9161;47.348;9.648;2023-05-07T04:17:11;12.20;99.90
18073;DHT22;9161;47.348;9.648;2023-05-07T04:22:13;12.40;99.90
18073;DHT22;9161;47.348;9.648;2023-05-07T04:27:16;12.20;99.90
18073;DHT22;9161;47.348;9.648;2023-05-07T04:32:18;12.10;99.90
18073;DHT22;9161;47.348;9.648;2023-05-07T04:37:20;12.00;99.90
18073;DHT22;9161;47.348;9.648;2023-05-07T04:42:24;12.00;99.90
18073;DHT22;9161;47.348;9.648;2023-05-07T04:47:26;12.00;99.90
18073;DHT22;9161;47.348;9.648;2023-05-07T04:52:28;12.10;99.90
18073;DHT22;9161;47.348;9.648;2023-05-07T04:57:31;12.10;99.90
18073;DHT22;9161;47.348;9.648;2023-05-07T05:02:33;12.20;99.90
18073;DHT22;9161;47.348;9.648;2023-05-07T05:07:34;12.20;99.90
18073;DHT22;9161;47.348;9.648;2023-05-07T05:12:38;12.40;99.90
18073;DHT22;9161;47.348;9.648;2023-05-07T05:17:40;12.70;99.90
18073;DHT22;9161;47.348;9.648;2023-05-07T05:22:42;12.90;99.90
18073;DHT22;9161;47.348;9.648;2023-05-07T05:27:46;13.10;99.90
18073;DHT22;9161;47.348;9.648;2023-05-07T05:32:49;13.30;99.90
18073;DHT22;9161;47.348;9.648;2023-05-07T05:37:51;13.50;99.90
18073;DHT22;9161;47.348;9.648;2023-05-07T05:42:54;13.60;99.90
18073;DHT22;9161;47.348;9.648;2023-05-07T05:47:56;14.00;99.90
18073;DHT22;9161;47.348;9.648;2023-05-07T05:52:59;14.40;99.90
18073;DHT22;9161;47.348;9.648;2023-05-07T05:58:02;14.90;99.90
18073;DHT22;9161;47.348;9.648;2023-05-07T06:03:04;15.50;99.90
18073;DHT22;9161;47.348;9.648;2023-05-07T06:08:07;16.10;99.90
18073;DHT22;9161;47.348;9.648;2023-05-07T06:13:10;16.70;99.90
18073;DHT22;9161;47.348;9.648;2023-05-07T06:18:12;17.30;99.90
18073;DHT22;9161;47.348;9.648;2023-05-07T06:23:15;17.50;99.90
18073;DHT22;9161;47.348;9.648;2023-05-07T06:28:19;17.00;99.90
18073;DHT22;9161;47.348;9.648;2023-05-07T06:33:21;16.80;99.90
18073;DHT22;9161;47.348;9.648;2023-05-07T06:38:23;16.70;99.90
18073;DHT22;9161;47.348;9.648;2023-05-07T06:43:27;16.60;99.90
18073;DHT22;9161;47.348;9.648;2023-05-07T06:48:28;16.80;99.90
18073;DHT22;9161;47.348;9.648;2023-05-07T06:53:30;16.70;99.90
18073;DHT22;9161;47.348;9.648;2023-05-07T06:58:34;16.80;99.90
18073;DHT22;9161;47.348;9.648;2023-05-07T07:03:35;16.90;99.90
18073;DHT22;9161;47.348;9.648;2023-05-07T07:08:37;17.20;99.90
18073;DHT22;9161;47.348;9.648;2023-05-07T07:13:41;17.40;99.90
18073;DHT22;9161;47.348;9.648;2023-05-07T07:18:43;17.20;99.90
18073;DHT22;9161;47.348;9.648;2023-05-07T07:23:46;17.40;99.90
18073;DHT22;9161;47.348;9.648;2023-05-07T07:28:49;17.50;99.90
18073;DHT22;9161;47.348;9.648;2023-05-07T07:33:51;17.50;99.90
18073;DHT22;9161;47.348;9.648;2023-05-07T07:38:53;17.10;99.90
18073;DHT22;9161;47.348;9.648;2023-05-07T07:43:57;17.20;99.90
18073;DHT22;9161;47.348;9.648;2023-05-07T07:48:59;17.30;99.90
18073;DHT22;9161;47.348;9.648;2023-05-07T07:54:01;17.40;99.90
18073;DHT22;9161;47.348;9.648;2023-05-07T07:59:05;17.70;99.90
18073;DHT22;9161;47.348;9.648;2023-05-07T08:04:07;17.80;99.90
18073;DHT22;9161;47.348;9.648;2023-05-07T08:09:09;18.30;99.90
18073;DHT22;9161;47.348;9.648;2023-05-07T08:14:12;18.80;99.90
18073;DHT22;9161;47.348;9.648;2023-05-07T08:19:16;18.30;99.90
18073;DHT22;9161;47.348;9.648;2023-05-07T08:24:18;18.70;99.90
18073;DHT22;9161;47.348;9.648;2023-05-07T08:29:22;18.80;99.90
18073;DHT22;9161;47.348;9.648;2023-05-07T08:34:24;18.70;99.90
18073;DHT22;9161;47.348;9.648;2023-05-07T08:39:26;19.50;99.90
18073;DHT22;9161;47.348;9.648;2023-05-07T08:44:33;19.60;99.90
18073;DHT22;9161;47.348;9.648;2023-05-07T08:49:36;20.50;99.90
18073;DHT22;9161;47.348;9.648;2023-05-07T08:54:38;21.30;99.90
18073;DHT22;9161;47.348;9.648;2023-05-07T08:59:42;21.60;99.90
18073;DHT22;9161;47.348;9.648;2023-05-07T09:04:44;22.10;99.90
18073;DHT22;9161;47.348;9.648;2023-05-07T09:09:46;22.70;99.90
18073;DHT22;9161;47.348;9.648;2023-05-07T09:14:51;22.80;99.90
18073;DHT22;9161;47.348;9.648;2023-05-07T09:19:53;23.30;99.90
18073;DHT22;9161;47.348;9.648;2023-05-07T09:24:56;23.40;99.90
18073;DHT22;9161;47.348;9.648;2023-05-07T09:30:03;23.60;99.90
18073;DHT22;9161;47.348;9.648;2023-05-07T09:35:14;23.80;99.90
18073;DHT22;9161;47.348;9.648;2023-05-07T09:40:22;24.10;99.90
18073;DHT22;9161;47.348;9.648;2023-05-07T09:45:26;24.40;99.90
18073;DHT22;9161;47.348;9.648;2023-05-07T09:50:32;25.00;99.90
18073;DHT22;9161;47.348;9.648;2023-05-07T09:55:37;25.20;99.90
18073;DHT22;9161;47.348;9.648;2023-05-07T10:00:41;25.00;99.90
18073;DHT22;9161;47.348;9.648;2023-05-07T10:05:44;23.70;99.90
18073;DHT22;9161;47.348;9.648;2023-05-07T10:10:49;23.70;99.90
18073;DHT22;9161;47.348;9.648;2023-05-07T10:15:53;24.50;99.90
18073;DHT22;9161;47.348;9.648;2023-05-07T10:21:01;23.90;99.90
18073;DHT22;9161;47.348;9.648;2023-05-07T10:26:05;24.40;99.90
18073;DHT22;9161;47.348;9.648;2023-05-07T10:31:15;24.50;99.90
18073;DHT22;9161;47.348;9.648;2023-05-07T10:36:21;24.70;99.90
18073;DHT22;9161;47.348;9.648;2023-05-07T10:41:24;24.80;99.90
18073;DHT22;9161;47.348;9.648;2023-05-07T10:46:28;24.80;99.90
18073;DHT22;9161;47.348;9.648;2023-05-07T10:51:33;23.80;99.90
18073;DHT22;9161;47.348;9.648;2023-05-07T10:56:36;24.10;99.90
18073;DHT22;9161;47.348;9.648;2023-05-07T11:01:53;23.00;99.90
18073;DHT22;9161;47.348;9.648;2023-05-07T11:07:25;22.30;99.90
18073;DHT22;9161;47.348;9.648;2023-05-07T11:12:49;22.90;99.90
18073;DHT22;9161;47.348;9.648;2023-05-07T11:17:56;22.40;99.90
18073;DHT22;9161;47.348;9.648;2023-05-07T11:23:00;22.00;99.90
18073;DHT22;9161;47.348;9.648;2023-05-07T11:33:12;21.80;99.90
18073;DHT22;9161;47.348;9.648;2023-05-07T11:38:14;23.10;99.90
18073;DHT22;9161;47.348;9.648;2023-05-07T11:43:16;24.20;99.90
18073;DHT22;9161;47.348;9.648;2023-05-07T11:48:21;25.10;99.90
18073;DHT22;9161;47.348;9.648;2023-05-07T11:53:25;25.70;99.90
18073;DHT22;9161;47.348;9.648;2023-05-07T11:58:27;25.50;99.90
18073;DHT22;9161;47.348;9.648;2023-05-07T12:03:31;27.00;99.90
18073;DHT22;9161;47.348;9.648;2023-05-07T12:08:37;27.90;99.90
18073;DHT22;9161;47.348;9.648;2023-05-07T12:13:39;29.70;99.90
18073;DHT22;9161;47.348;9.648;2023-05-07T12:18:43;30.60;99.90
18073;DHT22;9161;47.348;9.648;2023-05-07T12:23:46;30.70;99.90
18073;DHT22;9161;47.348;9.648;2023-05-07T12:28:48;31.40;99.90
18073;DHT22;9161;47.348;9.648;2023-05-07T12:33:51;32.00;99.90
18073;DHT22;9161;47.348;9.648;2023-05-07T12:38:54;32.40;97.40
18073;DHT22;9161;47.348;9.648;2023-05-07T12:43:57;31.80;98.00
18073;DHT22;9161;47.348;9.648;2023-05-07T12:49:00;33.00;97.10
18073;DHT22;9161;47.348;9.648;2023-05-07T12:54:03;33.80;96.80
18073;DHT22;9161;47.348;9.648;2023-05-07T12:59:05;32.10;90.60
18073;DHT22;9161;47.348;9.648;2023-05-07T13:04:08;32.70;96.80
18073;DHT22;9161;47.348;9.648;2023-05-07T13:09:11;33.70;96.50
18073;DHT22;9161;47.348;9.648;2023-05-07T13:14:13;33.90;94.80
18073;DHT22;9161;47.348;9.648;2023-05-07T13:19:17;32.90;91.60
18073;DHT22;9161;47.348;9.648;2023-05-07T13:24:19;33.00;93.20
18073;DHT22;9161;47.348;9.648;2023-05-07T13:29:21;33.40;93.10
18073;DHT22;9161;47.348;9.648;2023-05-07T13:34:30;33.50;93.70
18073;DHT22;9161;47.348;9.648;2023-05-07T13:39:31;34.20;93.00
18073;DHT22;9161;47.348;9.648;2023-05-07T13:44:34;33.90;92.40
18073;DHT22;9161;47.348;9.648;2023-05-07T13:49:37;34.70;93.30
18073;DHT22;9161;47.348;9.648;2023-05-07T13:54:39;34.30;88.70
18073;DHT22;9161;47.348;9.648;2023-05-07T13:59:42;34.20;92.00
18073;DHT22;9161;47.348;9.648;2023-05-07T14:04:45;32.30;91.10
18073;DHT22;9161;47.348;9.648;2023-05-07T14:09:47;31.20;92.30
18073;DHT22;9161;47.348;9.648;2023-05-07T14:14:49;30.50;92.60
18073;DHT22;9161;47.348;9.648;2023-05-07T14:19:53;30.10;93.80
18073;DHT22;9161;47.348;9.648;2023-05-07T14:24:55;30.20;94.80
18073;DHT22;9161;47.348;9.648;2023-05-07T14:30:14;30.40;93.30
18073;DHT22;9161;47.348;9.648;2023-05-07T14:35:18;30.80;94.00
18073;DHT22;9161;47.348;9.648;2023-05-07T14:40:21;30.90;93.00
18073;DHT22;9161;47.348;9.648;2023-05-07T14:45:23;28.80;94.00
18073;DHT22;9161;47.348;9.648;2023-05-07T14:50:27;25.80;97.20
18073;DHT22;9161;47.348;9.648;2023-05-07T14:55:30;24.20;98.50
18073;DHT22;9161;47.348;9.648;2023-05-07T15:00:34;23.40;99.90
18073;DHT22;9161;47.348;9.648;2023-05-07T15:05:38;22.60;99.90
18073;DHT22;9161;47.348;9.648;2023-05-07T15:10:41;22.20;99.90
18073;DHT22;9161;47.348;9.648;2023-05-07T15:15:44;21.70;99.90
18073;DHT22;9161;47.348;9.648;2023-05-07T15:20:48;21.50;99.90
18073;DHT22;9161;47.348;9.648;2023-05-07T15:25:50;21.40;99.90
18073;DHT22;9161;47.348;9.648;2023-05-07T15:30:52;21.20;99.90
18073;DHT22;9161;47.348;9.648;2023-05-07T15:35:57;21.10;99.90
18073;DHT22;9161;47.348;9.648;2023-05-07T15:41:00;20.80;99.90
18073;DHT22;9161;47.348;9.648;2023-05-07T15:46:03;20.70;99.90
18073;DHT22;9161;47.348;9.648;2023-05-07T15:51:08;20.50;99.90
18073;DHT22;9161;47.348;9.648;2023-05-07T15:56:11;20.50;99.90
18073;DHT22;9161;47.348;9.648;2023-05-07T16:01:14;20.50;99.90
18073;DHT22;9161;47.348;9.648;2023-05-07T16:06:19;20.40;99.90
18073;DHT22;9161;47.348;9.648;2023-05-07T16:11:22;20.30;99.90
18073;DHT22;9161;47.348;9.648;2023-05-07T16:16:25;20.20;99.90
18073;DHT22;9161;47.348;9.648;2023-05-07T16:21:31;19.40;99.90
18073;DHT22;9161;47.348;9.648;2023-05-07T16:26:35;19.20;99.90
18073;DHT22;9161;47.348;9.648;2023-05-07T16:31:38;18.90;99.90
18073;DHT22;9161;47.348;9.648;2023-05-07T16:36:42;18.10;99.90
18073;DHT22;9161;47.348;9.648;2023-05-07T16:41:45;17.50;99.90
18073;DHT22;9161;47.348;9.648;2023-05-07T16:46:49;17.10;99.90
18073;DHT22;9161;47.348;9.648;2023-05-07T16:51:55;16.90;99.90
18073;DHT22;9161;47.348;9.648;2023-05-07T16:56:58;16.60;99.90
18073;DHT22;9161;47.348;9.648;2023-05-07T17:02:01;16.60;99.90
18073;DHT22;9161;47.348;9.648;2023-05-07T17:07:05;16.70;99.90
18073;DHT22;9161;47.348;9.648;2023-05-07T17:12:08;16.60;99.90
18073;DHT22;9161;47.348;9.648;2023-05-07T17:17:11;16.30;99.90
18073;DHT22;9161;47.348;9.648;2023-05-07T17:22:15;15.80;99.90
18073;DHT22;9161;47.348;9.648;2023-05-07T17:27:20;15.70;99.90
18073;DHT22;9161;47.348;9.648;2023-05-07T17:32:32;15.60;99.90
18073;DHT22;9161;47.348;9.648;2023-05-07T17:37:37;15.30;99.90
18073;DHT22;9161;47.348;9.648;2023-05-07T17:42:39;15.50;99.90
18073;DHT22;9161;47.348;9.648;2023-05-07T17:47:42;15.60;99.90
18073;DHT22;9161;47.348;9.648;2023-05-07T17:52:46;15.50;99.90
18073;DHT22;9161;47.348;9.648;2023-05-07T17:57:49;15.30;99.90
18073;DHT22;9161;47.348;9.648;2023-05-07T18:02:52;15.00;99.90
18073;DHT22;9161;47.348;9.648;2023-05-07T18:07:56;15.00;99.90
18073;DHT22;9161;47.348;9.648;2023-05-07T18:12:59;14.90;99.90
18073;DHT22;9161;47.348;9.648;2023-05-07T18:18:03;14.80;99.90
18073;DHT22;9161;47.348;9.648;2023-05-07T18:23:07;14.90;99.90
18073;DHT22;9161;47.348;9.648;2023-05-07T18:28:10;14.90;99.90
18073;DHT22;9161;47.348;9.648;2023-05-07T18:33:16;14.90;99.90
18073;DHT22;9161;47.348;9.648;2023-05-07T18:38:21;14.80;99.90
18073;DHT22;9161;47.348;9.648;2023-05-07T18:43:24;14.80;99.90
18073;DHT22;9161;47.348;9.648;2023-05-07T18:48:27;14.70;99.90
18073;DHT22;9161;47.348;9.648;2023-05-07T18:53:31;14.70;99.90
18073;DHT22;9161;47.348;9.648;2023-05-07T18:58:34;14.60;99.90
18073;DHT22;9161;47.348;9.648;2023-05-07T19:03:37;14.50;99.90
18073;DHT22;9161;47.348;9.648;2023-05-07T19:08:42;14.30;99.90
18073;DHT22;9161;47.348;9.648;2023-05-07T19:14:08;14.40;99.90
18073;DHT22;9161;47.348;9.648;2023-05-07T19:19:21;14.30;99.90
18073;DHT22;9161;47.348;9.648;2023-05-07T19:31:05;14.50;99.90
18073;DHT22;9161;47.348;9.648;2023-05-07T19:36:39;14.60;99.90
18073;DHT22;9161;47.348;9.648;2023-05-07T19:42:10;14.60;99.90
18073;DHT22;9161;47.348;9.648;2023-05-07T19:48:15;14.40;99.90
18073;DHT22;9161;47.348;9.648;2023-05-07T19:53:50;14.30;99.90
18073;DHT22;9161;47.348;9.648;2023-05-07T20:05:36;14.30;99.90
18073;DHT22;9161;47.348;9.648;2023-05-07T20:11:19;14.40;99.90
18073;DHT22;9161;47.348;9.648;2023-05-07T20:16:33;14.50;99.90
18073;DHT22;9161;47.348;9.648;2023-05-07T20:21:50;14.60;99.90
18073;DHT22;9161;47.348;9.648;2023-05-07T20:27:21;14.60;99.90
18073;DHT22;9161;47.348;9.648;2023-05-07T20:32:45;14.60;99.90
18073;DHT22;9161;47.348;9.648;2023-05-07T20:38:12;14.60;99.90
18073;DHT22;9161;47.348;9.648;2023-05-07T20:43:48;14.50;99.90
18073;DHT22;9161;47.348;9.648;2023-05-07T20:49:14;14.50;99.90
18073;DHT22;9161;47.348;9.648;2023-05-07T20:54:54;14.40;99.90
18073;DHT22;9161;47.348;9.648;2023-05-07T21:00:21;14.40;99.90
18073;DHT22;9161;47.348;9.648;2023-05-07T21:05:48;14.40;99.90
18073;DHT22;9161;47.348;9.648;2023-05-07T21:11:12;14.40;99.90
18073;DHT22;9161;47.348;9.648;2023-05-07T21:16:31;14.30;99.90
18073;DHT22;9161;47.348;9.648;2023-05-07T21:21:41;14.30;99.90
18073;DHT22;9161;47.348;9.648;2023-05-07T21:26:45;14.30;99.90
18073;DHT22;9161;47.348;9.648;2023-05-07T21:31:47;14.30;99.90
18073;DHT22;9161;47.348;9.648;2023-05-07T21:36:49;14.20;99.90
18073;DHT22;9161;47.348;9.648;2023-05-07T21:41:53;14.30;99.90
18073;DHT22;9161;47.348;9.648;2023-05-07T21:46:58;14.30;99.90
18073;DHT22;9161;47.348;9.648;2023-05-07T21:52:01;14.30;99.90
18073;DHT22;9161;47.348;9.648;2023-05-07T21:57:07;14.20;99.90
18073;DHT22;9161;47.348;9.648;2023-05-07T22:02:10;14.20;99.90
18073;DHT22;9161;47.348;9.648;2023-05-07T22:07:18;14.10;99.90
18073;DHT22;9161;47.348;9.648;2023-05-07T22:12:25;14.10;99.90
18073;DHT22;9161;47.348;9.648;2023-05-07T22:17:31;14.10;99.90
18073;DHT22;9161;47.348;9.648;2023-05-07T22:22:45;14.00;99.90
18073;DHT22;9161;47.348;9.648;2023-05-07T22:27:54;13.90;99.90
18073;DHT22;9161;47.348;9.648;2023-05-07T22:32:59;13.90;99.90
18073;DHT22;9161;47.348;9.648;2023-05-07T22:38:12;13.90;99.90
18073;DHT22;9161;47.348;9.648;2023-05-07T22:43:16;13.90;99.90
18073;DHT22;9161;47.348;9.648;2023-05-07T22:48:18;13.80;99.90
18073;DHT22;9161;47.348;9.648;2023-05-07T22:53:20;13.80;99.90
18073;DHT22;9161;47.348;9.648;2023-05-07T22:58:24;13.80;99.90
18073;DHT22;9161;47.348;9.648;2023-05-07T23:03:27;13.70;99.90
18073;DHT22;9161;47.348;9.648;2023-05-07T23:08:29;13.80;99.90
18073;DHT22;9161;47.348;9.648;2023-05-07T23:13:32;13.70;99.90
18073;DHT22;9161;47.348;9.648;2023-05-07T23:18:34;13.60;99.90
18073;DHT22;9161;47.348;9.648;2023-05-07T23:23:36;13.60;99.90
18073;DHT22;9161;47.348;9.648;2023-05-07T23:28:40;13.70;99.90
18073;DHT22;9161;47.348;9.648;2023-05-07T23:33:42;13.70;99.90
18073;DHT22;9161;47.348;9.648;2023-05-07T23:38:44;13.70;99.90
18073;DHT22;9161;47.348;9.648;2023-05-07T23:43:47;13.70;99.90
18073;DHT22;9161;47.348;9.648;2023-05-07T23:48:49;13.70;99.90
18073;DHT22;9161;47.348;9.648;2023-05-07T23:53:51;13.70;99.90
18073;DHT22;9161;47.348;9.648;2023-05-07T23:58:54;13.60;99.90
